Terminal Aerodrome Forecast
Issued by NWS

Home | Current Version | Previous Version | Text Only | Print | Product List | Glossary On
Versions: 1 2 3 4 5 6 7 8 9 10 11 12 13 14 15 16 17 18 19 20 21 22
000
FTUS41 KGYX 180520
TAFRKD
TAF
KRKD 180520Z 1806/1906 30005KT P6SM -SHRA OVC020
     FM180900 34009KT 3SM -SN OVC007
     FM181200 30006KT 2SM -SN BR OVC015
     FM181600 31009G16KT P6SM OVC025
     FM181900 30010G20KT P6SM BKN040
     FM182100 30006KT P6SM OVC050
      AMD LTD TO CLD VIS AND WIND=

USA.gov is the U.S. government's official web portal to all federal, state and local government web resources and services.